createdAt,value
2023-02-13T00:04:07.560Z,1039.257
2023-02-13T00:09:10.884Z,1039.2
2023-02-13T00:14:07.313Z,1039.138
2023-02-13T00:19:11.792Z,1039.124
2023-02-13T00:24:07.639Z,1039.079
2023-02-13T00:29:07.125Z,1038.995
2023-02-13T00:34:07.258Z,1039
2023-02-13T00:39:07.173Z,1039.033
2023-02-13T00:44:07.123Z,1038.999
2023-02-13T00:49:07.338Z,1038.999
2023-02-13T00:54:07.061Z,1038.963
2023-02-13T00:59:12.732Z,1038.95
2023-02-13T01:04:09.917Z,1038.938
2023-02-13T01:09:08.725Z,1038.865
2023-02-13T01:14:07.407Z,1038.934
2023-02-13T01:19:11.799Z,1038.893
2023-02-13T01:24:10.420Z,1038.864
2023-02-13T01:29:07.138Z,1038.882
2023-02-13T01:34:07.499Z,1038.857
2023-02-13T01:39:12.537Z,1038.866
2023-02-13T01:44:20.249Z,1038.853
2023-02-13T01:49:10.675Z,1038.891
2023-02-13T01:54:09.802Z,1038.896
2023-02-13T01:59:09.821Z,1038.852
2023-02-13T02:04:13.786Z,1038.835
2023-02-13T02:09:16.722Z,1038.796
2023-02-13T02:14:07.494Z,1038.778
2023-02-13T02:19:09.516Z,1038.788
2023-02-13T02:24:30.040Z,1038.742
2023-02-13T02:29:22.591Z,1038.714
2023-02-13T02:34:14.030Z,1038.699
2023-02-13T02:39:14.012Z,1038.681
2023-02-13T02:44:11.759Z,1038.659
2023-02-13T02:49:20.012Z,1038.671
2023-02-13T02:54:24.294Z,1038.708
2023-02-13T02:59:22.121Z,1038.642
2023-02-13T03:04:21.737Z,1038.686
2023-02-13T03:09:21.237Z,1038.717
2023-02-13T03:14:11.038Z,1038.725
2023-02-13T03:19:22.470Z,1038.613
2023-02-13T03:24:15.661Z,1038.591
2023-02-13T03:29:26.309Z,1038.667
2023-02-13T03:34:08.625Z,1038.618
2023-02-13T03:39:11.203Z,1038.564
2023-02-13T03:44:13.266Z,1038.557
2023-02-13T03:49:19.697Z,1038.603
2023-02-13T03:54:11.804Z,1038.6
2023-02-13T03:59:24.738Z,1038.564
2023-02-13T04:04:13.091Z,1038.59
2023-02-13T04:09:07.026Z,1038.487
2023-02-13T04:14:09.738Z,1038.486
2023-02-13T04:19:07.523Z,1038.436
2023-02-13T04:24:07.097Z,1038.468
2023-02-13T04:29:07.571Z,1038.501
2023-02-13T04:34:07.359Z,1038.442
2023-02-13T04:39:09.748Z,1038.436
2023-02-13T04:44:08.581Z,1038.429
2023-02-13T04:49:07.151Z,1038.386
2023-02-13T04:54:06.952Z,1038.33
2023-02-13T04:59:06.985Z,1038.338
2023-02-13T05:04:07.155Z,1038.313
2023-02-13T05:09:07.028Z,1038.315
2023-02-13T05:14:08.603Z,1038.245
2023-02-13T05:19:07.034Z,1038.278
2023-02-13T05:24:06.975Z,1038.261
2023-02-13T05:29:18.732Z,1038.267
2023-02-13T05:34:07.185Z,1038.232
2023-02-13T05:39:07.408Z,1038.233
2023-02-13T05:44:07.156Z,1038.239
2023-02-13T05:49:10.809Z,1038.231
2023-02-13T05:54:14.928Z,1038.272
2023-02-13T05:59:07.099Z,1038.205
2023-02-13T06:04:07.993Z,1038.253
2023-02-13T06:09:07.212Z,1038.292
2023-02-13T06:14:07.158Z,1038.316
2023-02-13T06:19:07.198Z,1038.28
2023-02-13T06:24:09.717Z,1038.24
2023-02-13T06:29:09.303Z,1038.241
2023-02-13T06:34:07.837Z,1038.297
2023-02-13T06:39:08.632Z,1038.328
2023-02-13T06:44:07.610Z,1038.384
2023-02-13T06:49:06.941Z,1038.376
2023-02-13T06:54:06.959Z,1038.362
2023-02-13T06:59:09.569Z,1038.368
2023-02-13T07:04:07.030Z,1038.376
2023-02-13T07:09:07.349Z,1038.358
2023-02-13T07:14:09.583Z,1038.419
2023-02-13T07:19:10.272Z,1038.483
2023-02-13T07:24:08.119Z,1038.533
2023-02-13T07:29:11.661Z,1038.559
2023-02-13T07:34:07.092Z,1038.59
2023-02-13T07:39:07.114Z,1038.694
2023-02-13T07:44:09.484Z,1038.653
2023-02-13T07:49:07.453Z,1038.648
2023-02-13T07:54:07.193Z,1038.667
2023-02-13T07:59:07.953Z,1038.737
2023-02-13T08:04:07.353Z,1038.759
2023-02-13T08:09:27.679Z,1038.838
2023-02-13T08:14:12.724Z,1038.84
2023-02-13T08:19:07.289Z,1038.789
2023-02-13T08:24:07.090Z,1038.781
2023-02-13T08:29:07.025Z,1038.836
2023-02-13T08:34:06.938Z,1038.846
2023-02-13T08:39:07.652Z,1038.791
2023-02-13T08:44:06.889Z,1038.736
2023-02-13T08:49:07.230Z,1038.653
2023-02-13T08:54:17.341Z,1038.652
2023-02-13T08:59:06.997Z,1038.63
2023-02-13T09:04:07.324Z,1038.671
2023-02-13T09:09:08.389Z,1038.749
2023-02-13T09:14:06.864Z,1038.672
2023-02-13T09:19:07.071Z,1038.693
2023-02-13T09:24:10.504Z,1038.718
2023-02-13T09:29:07.151Z,1038.69
2023-02-13T09:34:06.940Z,1038.709
2023-02-13T09:39:08.147Z,1038.689
2023-02-13T09:44:09.805Z,1038.648
2023-02-13T09:49:11.236Z,1038.658
2023-02-13T09:54:08.764Z,1038.704
2023-02-13T09:59:13.082Z,1038.701
2023-02-13T10:04:30.392Z,1038.676
2023-02-13T10:09:10.488Z,1038.694
2023-02-13T10:14:16.864Z,1038.631
2023-02-13T10:19:07.866Z,1038.626
2023-02-13T10:24:10.436Z,1038.58
2023-02-13T10:29:21.585Z,1038.569
2023-02-13T10:34:11.331Z,1038.613
2023-02-13T10:39:17.053Z,1038.615
2023-02-13T10:44:19.207Z,1038.616
2023-02-13T10:49:24.847Z,1038.575
2023-02-13T10:54:19.018Z,1038.573
2023-02-13T10:59:17.869Z,1038.485
2023-02-13T11:04:09.751Z,1038.437
2023-02-13T11:09:13.182Z,1038.35
2023-02-13T11:14:22.962Z,1038.244
2023-02-13T11:19:07.031Z,1038.201
2023-02-13T11:24:07.117Z,1038.155
2023-02-13T11:29:09.747Z,1038.089
2023-02-13T11:34:16.822Z,1038.072
2023-02-13T11:39:15.239Z,1037.996
2023-02-13T11:44:07.991Z,1037.976
2023-02-13T11:49:09.232Z,1037.952
2023-02-13T11:54:11.334Z,1037.955
2023-02-13T11:59:08.618Z,1037.788
2023-02-13T12:04:11.229Z,1037.772
2023-02-13T12:09:08.044Z,1037.727
2023-02-13T12:14:07.102Z,1037.688
2023-02-13T12:19:08.805Z,1037.676
2023-02-13T12:24:14.005Z,1037.697
2023-02-13T12:29:22.759Z,1037.714
2023-02-13T12:34:20.780Z,1037.625
2023-02-13T12:39:16.595Z,1037.562
2023-02-13T12:44:19.051Z,1037.51
2023-02-13T12:49:12.263Z,1037.449
2023-02-13T12:54:20.684Z,1037.368
2023-02-13T12:59:16.584Z,1037.379
2023-02-13T13:04:16.209Z,1037.33
2023-02-13T13:09:29.391Z,1037.295
2023-02-13T13:14:13.445Z,1037.2
2023-02-13T13:19:11.898Z,1037.167
2023-02-13T13:24:09.512Z,1037.173
2023-02-13T13:29:09.515Z,1037.067
2023-02-13T13:34:10.014Z,1037.024
2023-02-13T13:39:10.367Z,1036.931
2023-02-13T13:44:20.330Z,1036.836
2023-02-13T13:49:14.541Z,1036.814
2023-02-13T13:54:33.412Z,1036.728
2023-02-13T13:59:06.840Z,1036.683
2023-02-13T14:04:18.163Z,1036.671
2023-02-13T14:09:09.408Z,1036.627
2023-02-13T14:14:16.833Z,1036.625
2023-02-13T14:19:07.878Z,1036.607
2023-02-13T14:24:15.327Z,1036.621
2023-02-13T14:29:17.553Z,1036.645
2023-02-13T14:34:09.012Z,1036.589
2023-02-13T14:39:10.375Z,1036.621
2023-02-13T14:44:09.827Z,1036.647
2023-02-13T14:49:10.577Z,1036.601
2023-02-13T14:54:09.002Z,1036.505
2023-02-13T14:59:14.225Z,1036.412
2023-02-13T15:04:10.228Z,1036.315
2023-02-13T15:09:09.904Z,1036.337
2023-02-13T15:14:18.208Z,1036.383
2023-02-13T15:19:07.045Z,1036.31
2023-02-13T15:24:07.302Z,1036.393
2023-02-13T15:29:14.138Z,1036.385
2023-02-13T15:34:07.225Z,1036.31
2023-02-13T15:39:10.745Z,1036.31
2023-02-13T15:44:07.830Z,1036.289
2023-02-13T15:49:10.351Z,1036.31
2023-02-13T15:54:11.353Z,1036.3
2023-02-13T15:59:10.041Z,1036.287
2023-02-13T16:04:14.878Z,1036.282
2023-02-13T16:09:09.927Z,1036.262
2023-02-13T16:14:18.835Z,1036.264
2023-02-13T16:19:07.051Z,1036.247
2023-02-13T16:24:11.691Z,1036.274
2023-02-13T16:29:14.083Z,1036.221
2023-02-13T16:34:19.802Z,1036.208
2023-02-13T16:39:14.336Z,1036.218
2023-02-13T16:44:07.456Z,1036.147
2023-02-13T16:49:18.483Z,1036.153
2023-02-13T16:54:09.544Z,1036.064
2023-02-13T16:59:23.820Z,1036.047
2023-02-13T17:04:14.062Z,1036.19
2023-02-13T17:09:11.898Z,1036.238
2023-02-13T17:14:12.130Z,1036.215
2023-02-13T17:19:07.113Z,1036.221
2023-02-13T17:24:07.033Z,1036.199
2023-02-13T17:29:06.987Z,1036.195
2023-02-13T17:34:06.923Z,1036.258
2023-02-13T17:39:15.773Z,1036.271
2023-02-13T17:44:07.008Z,1036.28
2023-02-13T17:49:08.620Z,1036.283
2023-02-13T17:54:09.149Z,1036.327
2023-02-13T17:59:06.897Z,1036.403
2023-02-13T18:04:11.649Z,1036.393
2023-02-13T18:09:09.320Z,1036.405
2023-02-13T18:14:09.456Z,1036.392
2023-02-13T18:19:06.749Z,1036.35
2023-02-13T18:24:09.416Z,1036.413
2023-02-13T18:29:10.911Z,1036.386
2023-02-13T18:34:09.342Z,1036.373
2023-02-13T18:39:10.802Z,1036.397
2023-02-13T18:44:07.880Z,1036.385
2023-02-13T18:49:08.682Z,1036.414
2023-02-13T18:54:07.286Z,1036.382
2023-02-13T18:59:08.401Z,1036.332
2023-02-13T19:04:08.488Z,1036.386
2023-02-13T19:09:10.531Z,1036.4
2023-02-13T19:14:09.408Z,1036.413
2023-02-13T19:19:07.997Z,1036.408
2023-02-13T19:24:11.151Z,1036.381
2023-02-13T19:29:07.745Z,1036.384
2023-02-13T19:34:07.088Z,1036.364
2023-02-13T19:39:08.736Z,1036.393
2023-02-13T19:44:14.158Z,1036.442
2023-02-13T19:49:06.846Z,1036.432
2023-02-13T19:54:08.248Z,1036.512
2023-02-13T19:59:06.927Z,1036.532
2023-02-13T20:04:06.868Z,1036.532
2023-02-13T20:13:47.155Z,1036.542
2023-02-13T20:18:45.052Z,1036.55
2023-02-13T20:23:45.532Z,1036.56
2023-02-13T20:28:46.610Z,1036.565
2023-02-13T20:33:48.559Z,1036.622
2023-02-13T20:38:44.968Z,1036.587
2023-02-13T20:43:45.864Z,1036.559
2023-02-13T20:48:47.415Z,1036.541
2023-02-13T20:53:45.320Z,1036.582
2023-02-13T20:58:54.480Z,1036.536
2023-02-13T21:03:47.554Z,1036.47
2023-02-13T21:08:47.114Z,1036.497
2023-02-13T21:13:44.845Z,1036.582
2023-02-13T21:18:45.303Z,1036.531
2023-02-13T21:23:47.416Z,1036.618
2023-02-13T21:28:46.021Z,1036.669
2023-02-13T21:33:47.694Z,1036.71
2023-02-13T21:38:47.591Z,1036.7
2023-02-13T21:43:46.538Z,1036.614
2023-02-13T21:48:47.757Z,1036.634
2023-02-13T21:53:48.045Z,1036.56
2023-02-13T21:58:50.250Z,1036.487
2023-02-13T22:04:00.845Z,1036.466
2023-02-13T22:08:47.935Z,1036.467
2023-02-13T22:13:54.451Z,1036.448
2023-02-13T22:18:46.016Z,1036.401
2023-02-13T22:24:06.772Z,1036.36
2023-02-13T22:28:45.878Z,1036.336
2023-02-13T22:33:52.366Z,1036.345
2023-02-13T22:38:46.209Z,1036.359
2023-02-13T22:43:45.097Z,1036.331
2023-02-13T22:53:48.117Z,1036.274
2023-02-13T22:58:45.905Z,1036.242
2023-02-13T23:03:44.837Z,1036.251
2023-02-13T23:08:47.808Z,1036.206
2023-02-13T23:13:49.170Z,1036.204
2023-02-13T23:18:44.907Z,1036.141
2023-02-13T23:23:47.448Z,1036.067
2023-02-13T23:28:51.787Z,1035.997
2023-02-13T23:33:44.880Z,1036.025
2023-02-13T23:38:44.669Z,1036.056
2023-02-13T23:43:46.498Z,1036.003
2023-02-13T23:48:45.837Z,1036.047
2023-02-13T23:53:47.685Z,1036.055
2023-02-13T23:58:44.625Z,1036.09
